Time;durP1;ratioP1;P1;durP2;ratioP2;P2;SDS_P1;SDS_P2;PMS_P1;PMS_P2;Temp;Humidity;BMP_temperature;BMP_pressure;BME280_temperature;BME280_humidity;BME280_pressure;Samples;Min_cycle;Max_cycle;Signal;HPM_P1;HPM_P2
2023/04/24 00:04:45;;;;;;;1.75;1.20;;;;;;;12.89;71.56;98074.34;7331865;39;20259;31
2023/04/24 00:10:22;;;;;;;2.87;1.20;;;;;;;12.88;72.28;98080.78;7358544;39;20346;31
2023/04/24 00:15:54;;;;;;;4.20;1.40;;;;;;;12.94;72.14;98067.28;7346161;39;20244;31
2023/04/24 00:21:26;;;;;;;1.70;1.40;;;;;;;12.88;72.31;98061.84;7333373;39;20244;31
2023/04/24 00:27:00;;;;;;;2.10;1.62;;;;;;;12.74;73.00;98057.47;7334855;39;20263;31
2023/04/24 00:37:20;;;;;;;3.00;1.50;;;;;;;12.59;73.50;98028.78;7396220;39;21231;31
2023/04/24 00:48:01;;;;;;;2.30;1.70;;;;;;;12.44;74.11;98044.38;7395071;39;20391;31
2023/04/24 00:58:41;;;;;;;2.15;1.70;;;;;;;12.51;73.29;98045.22;7419107;39;21249;31
2023/04/24 01:04:13;;;;;;;2.05;1.45;;;;;;;12.40;74.27;98055.81;7338855;39;20402;31
2023/04/24 01:14:49;;;;;;;2.20;1.40;;;;;;;12.28;74.71;98055.59;7397178;39;21022;31
2023/04/24 01:25:26;;;;;;;3.25;1.60;;;;;;;12.27;75.58;98045.81;7377890;39;21187;31
2023/04/24 01:30:59;;;;;;;4.97;1.77;;;;;;;12.25;75.94;98030.84;7337249;39;20442;31
2023/04/24 01:36:31;;;;;;;2.47;1.33;;;;;;;12.25;75.63;98030.84;7362933;39;20291;31
2023/04/24 01:47:07;;;;;;;2.40;1.60;;;;;;;12.32;75.63;98037.94;7364458;39;21336;31
2023/04/24 01:57:44;;;;;;;2.53;1.70;;;;;;;12.26;76.43;98038.75;7388436;39;20278;31
2023/04/24 02:08:21;;;;;;;3.33;1.70;;;;;;;12.28;76.55;98027.75;7417862;39;21063;31
2023/04/24 02:18:57;;;;;;;3.20;1.85;;;;;;;12.15;77.72;98034.75;7416747;39;21047;31
2023/04/24 02:24:34;;;;;;;2.33;1.57;;;;;;;12.20;78.17;98042.25;7415079;39;20323;31
2023/04/24 02:29:55;;;;;;;3.83;1.60;;;;;;;12.20;77.57;98088.19;7399912;39;20774;31
2023/04/24 02:35:12;;;;;;;3.60;1.50;;;;;;;12.03;77.26;98090.44;7424843;39;21203;31
2023/04/24 02:40:46;;;;;;;2.53;1.60;;;;;;;11.84;76.40;98104.72;7403619;39;21293;31
2023/04/24 02:46:21;;;;;;;2.03;1.73;;;;;;;11.85;76.86;98114.44;7356675;39;20364;31
2023/04/24 02:51:41;;;;;;;2.33;1.70;;;;;;;11.73;76.86;98108.81;7312193;39;20271;31
2023/04/24 02:57:14;;;;;;;2.40;1.80;;;;;;;11.69;76.65;98110.22;7336848;39;20282;31
2023/04/24 03:02:31;;;;;;;2.40;1.70;;;;;;;11.60;77.05;98106.00;7333343;39;20266;31
2023/04/24 03:08:03;;;;;;;2.93;1.80;;;;;;;11.68;77.10;98099.59;7322311;39;20240;31
2023/04/24 03:13:36;;;;;;;1.77;1.50;;;;;;;11.71;76.03;98101.91;7360195;39;20262;31
2023/04/24 03:18:53;;;;;;;1.87;1.60;;;;;;;11.62;76.40;98086.94;7197161;39;20323;31
2023/04/24 03:24:10;;;;;;;1.97;1.67;;;;;;;11.54;75.54;98098.69;7366439;39;20250;31
2023/04/24 03:29:46;;;;;;;3.07;1.53;;;;;;;11.45;75.41;98117.97;7381566;39;20243;31
2023/04/24 03:35:04;;;;;;;2.13;1.67;;;;;;;11.37;76.07;98110.84;7313790;39;20276;31
2023/04/24 03:40:36;;;;;;;4.00;1.80;;;;;;;11.26;76.23;98106.03;7335458;39;20319;31
2023/04/24 03:46:09;;;;;;;1.70;1.60;;;;;;;11.17;75.64;98104.50;7321794;39;20429;31
2023/04/24 03:51:39;;;;;;;3.25;2.00;;;;;;;11.09;76.30;98112.75;7353067;39;21670;31
2023/04/24 03:57:14;;;;;;;3.53;2.37;;;;;;;11.10;75.78;98117.13;7378391;39;20338;31
2023/04/24 04:02:50;;;;;;;2.53;2.03;;;;;;;11.08;75.29;98132.66;7400678;39;20246;31
2023/04/24 04:08:08;;;;;;;4.26;2.46;;;;;;;10.94;75.94;98142.50;7410920;39;20234;31
2023/04/24 04:13:26;;;;;;;3.47;2.70;;;;;;;10.90;76.10;98161.94;7448122;39;20244;31
2023/04/24 04:19:02;;;;;;;4.10;2.50;;;;;;;10.85;75.50;98170.63;7378496;39;20330;31
2023/04/24 04:24:33;;;;;;;4.20;3.10;;;;;;;10.95;75.38;98183.78;7400228;39;20255;31
2023/04/24 04:35:10;;;;;;;2.92;2.62;;;;;;;10.94;74.61;98185.63;7413694;39;21531;31
2023/04/24 04:45:32;;;;;;;3.05;2.60;;;;;;;10.97;74.43;98190.62;7396428;39;21246;31
2023/04/24 04:51:04;;;;;;;3.70;2.67;;;;;;;10.98;74.50;98197.69;7354882;39;20252;31
2023/04/24 04:56:22;;;;;;;3.00;2.67;;;;;;;11.02;74.99;98215.16;7349613;39;20254;31
2023/04/24 05:01:54;;;;;;;4.45;2.60;;;;;;;11.02;75.51;98217.00;7382594;39;20251;31
2023/04/24 05:07:27;;;;;;;3.40;2.77;;;;;;;11.04;75.27;98231.97;7329413;39;20359;31
2023/04/24 05:17:49;;;;;;;3.70;2.50;;;;;;;10.98;76.12;98246.22;7333613;39;21321;31
2023/04/24 05:28:28;;;;;;;2.35;2.15;;;;;;;11.06;76.27;98251.47;7354413;39;20279;31
2023/04/24 05:39:00;;;;;;;5.07;2.92;;;;;;;11.11;76.47;98259.84;7398975;39;21113;31
2023/04/24 05:49:40;;;;;;;5.07;2.63;;;;;;;11.07;76.30;98268.50;7399621;39;20243;31
2023/04/24 05:54:57;;;;;;;2.93;2.60;;;;;;;11.13;76.25;98260.50;7446706;39;21239;31
2023/04/24 06:00:42;;;;;;;2.47;2.27;;;;;;;11.02;76.30;98273.63;7353630;39;20282;31
2023/04/24 06:06:13;;;;;;;2.50;2.30;;;;;;;10.93;75.82;98286.41;7359831;39;20392;31
2023/04/24 06:11:46;;;;;;;4.10;2.17;;;;;;;11.07;74.98;98279.28;7294534;39;20333;31
2023/04/24 06:17:03;;;;;;;2.37;1.80;;;;;;;11.14;74.66;98283.75;7315896;39;20263;31
2023/04/24 06:22:37;;;;;;;2.20;2.00;;;;;;;11.25;73.84;98295.88;7337674;39;20263;31
2023/04/24 06:28:12;;;;;;;2.70;2.00;;;;;;;11.17;73.78;98309.47;7337869;39;21181;31
2023/04/24 06:38:52;;;;;;;2.60;1.50;;;;;;;10.83;74.58;98359.53;7378396;39;20313;31
2023/04/24 06:49:15;;;;;;;2.74;1.80;;;;;;;10.50;76.06;98365.50;7396407;39;21412;31
2023/04/24 06:54:46;;;;;;;4.67;1.87;;;;;;;10.46;76.72;98348.88;7399833;39;20337;31
2023/04/24 07:00:20;;;;;;;2.50;2.00;;;;;;;10.56;76.32;98360.19;7380987;39;20267;31
2023/04/24 07:05:53;;;;;;;2.55;2.00;;;;;;;10.61;76.50;98362.34;7299829;39;20259;31
2023/04/24 07:11:29;;;;;;;2.13;1.93;;;;;;;10.78;76.94;98372.72;7355893;39;20244;31
2023/04/24 07:17:01;;;;;;;2.27;1.83;;;;;;;10.74;77.02;98379.53;7315915;39;20241;31
2023/04/24 07:22:18;;;;;;;2.95;1.90;;;;;;;10.69;77.69;98381.94;7283113;40;20260;31
2023/04/24 07:27:54;;;;;;;2.17;1.97;;;;;;;10.94;77.01;98387.00;7357697;39;20243;31
2023/04/24 07:33:13;;;;;;;5.13;2.27;;;;;;;11.36;77.12;98386.25;7353377;39;20244;31
2023/04/24 07:39:00;;;;;;;2.40;1.80;;;;;;;11.25;76.35;98387.56;7396578;39;20995;31
2023/04/24 07:44:36;;;;;;;3.07;2.20;;;;;;;11.17;76.22;98385.84;7428854;39;21325;31
2023/04/24 07:50:12;;;;;;;2.90;1.90;;;;;;;11.21;76.35;98394.38;7446041;39;21277;31
2023/04/24 07:55:29;;;;;;;3.30;2.07;;;;;;;11.20;76.41;98398.09;7448090;39;21161;31
2023/04/24 08:00:59;;;;;;;2.70;1.80;;;;;;;11.30;76.25;98415.66;7396532;39;20335;31
2023/04/24 08:06:31;;;;;;;2.03;1.70;;;;;;;11.29;74.99;98408.59;7377084;39;20457;31
2023/04/24 08:12:03;;;;;;;1.97;1.60;;;;;;;11.37;75.21;98407.63;7334264;39;20275;31
2023/04/24 08:17:36;;;;;;;3.40;1.80;;;;;;;11.65;73.30;98408.56;7304487;39;20262;31
2023/04/24 08:22:54;;;;;;;2.03;1.67;;;;;;;12.07;71.97;98415.81;7301488;39;21979;31
2023/04/24 08:28:28;;;;;;;2.83;1.87;;;;;;;12.35;70.38;98418.53;7290002;39;20321;31
2023/04/24 08:34:01;;;;;;;2.37;1.73;;;;;;;12.42;68.65;98414.00;7331853;39;20240;31
2023/04/24 08:39:36;;;;;;;2.40;1.57;;;;;;;12.01;69.78;98442.78;7343272;39;20343;31
2023/04/24 08:45:08;;;;;;;2.03;1.60;;;;;;;11.82;69.76;98457.75;7352987;39;20275;31
2023/04/24 08:50:54;;;;;;;2.10;1.80;;;;;;;11.80;70.68;98461.69;7333605;39;20259;31
2023/04/24 08:56:26;;;;;;;2.90;1.97;;;;;;;11.59;69.84;98465.16;7355830;39;20393;31
2023/04/24 09:01:58;;;;;;;2.55;1.80;;;;;;;11.57;70.82;98483.41;7377098;39;20255;31
2023/04/24 09:07:31;;;;;;;2.97;2.67;;;;;;;11.42;69.08;98475.34;7365199;39;20247;31
2023/04/24 09:13:08;;;;;;;4.17;2.80;;;;;;;11.73;68.46;98462.44;7396945;39;20312;31
2023/04/24 09:18:38;;;;;;;4.57;2.73;;;;;;;12.28;65.43;98460.06;7398453;39;20261;31
2023/04/24 09:24:12;;;;;;;4.57;2.70;;;;;;;12.50;65.05;98457.12;7407829;39;20242;31
2023/04/24 09:29:44;;;;;;;3.40;2.40;;;;;;;12.69;64.43;98452.84;7397721;39;20322;31
2023/04/24 09:35:25;;;;;;;2.90;2.40;;;;;;;12.88;63.83;98462.97;7398347;39;20275;31
2023/04/24 09:40:58;;;;;;;5.13;2.83;;;;;;;12.54;64.08;98479.16;7332470;39;20435;31
2023/04/24 09:51:34;;;;;;;3.87;2.57;;;;;;;12.29;67.53;98494.97;7356168;39;21203;31
2023/04/24 10:02:11;;;;;;;2.97;2.70;;;;;;;11.56;69.85;98514.97;7368475;39;21136;31
2023/04/24 10:12:47;;;;;;;4.15;2.92;;;;;;;11.95;70.63;98536.19;7348586;39;21170;31
2023/04/24 10:18:20;;;;;;;4.25;3.00;;;;;;;11.93;69.88;98534.72;7156604;39;20240;31
2023/04/24 10:23:55;;;;;;;3.80;2.80;;;;;;;11.98;70.18;98545.81;7343971;39;20239;31
2023/04/24 10:29:27;;;;;;;3.40;2.50;;;;;;;12.03;68.95;98537.94;7332179;39;20263;31
2023/04/24 10:35:03;;;;;;;3.33;2.53;;;;;;;11.97;69.00;98553.06;7335239;39;20251;31
2023/04/24 10:40:35;;;;;;;4.00;2.50;;;;;;;11.82;69.35;98564.91;7351769;39;20289;31
2023/04/24 10:46:16;;;;;;;3.77;2.50;;;;;;;11.83;70.39;98577.41;7358890;39;20259;31
2023/04/24 10:52:07;;;;;;;4.60;3.00;;;;;;;11.79;70.50;98593.16;7325712;39;20352;31
2023/04/24 10:57:42;;;;;;;4.43;3.70;;;;;;;11.80;70.83;98594.00;7318686;39;20248;31
2023/04/24 11:03:00;;;;;;;6.00;3.50;;;;;;;11.71;69.55;98598.63;7338205;39;20240;31
2023/04/24 11:08:45;;;;;;;3.87;3.20;;;;;;;11.70;69.85;98592.38;7353868;39;21215;31
2023/04/24 11:19:21;;;;;;;5.15;3.25;;;;;;;11.82;68.58;98600.03;7348586;39;21120;31
2023/04/24 11:25:01;;;;;;;3.90;3.45;;;;;;;12.03;67.45;98602.75;7327345;39;20393;31
2023/04/24 11:30:29;;;;;;;4.97;3.40;;;;;;;12.09;67.24;98607.41;7352108;39;20379;31
2023/04/24 11:36:01;;;;;;;5.10;3.40;;;;;;;12.42;66.11;98600.47;7357488;39;20324;31
2023/04/24 11:41:32;;;;;;;5.07;3.50;;;;;;;12.51;64.88;98606.59;7378572;39;20242;31
2023/04/24 11:46:53;;;;;;;5.73;3.10;;;;;;;12.46;65.27;98611.75;7336346;39;20260;31
2023/04/24 11:52:24;;;;;;;5.33;3.13;;;;;;;12.19;64.80;98613.34;7338200;39;20278;31
2023/04/24 11:57:58;;;;;;;3.20;2.90;;;;;;;12.04;64.85;98612.53;7317594;39;20244;31
2023/04/24 12:03:19;;;;;;;4.00;2.73;;;;;;;11.97;65.95;98614.34;7317831;39;20236;31
2023/04/24 12:08:50;;;;;;;5.40;2.90;;;;;;;12.14;65.73;98618.50;7314943;39;20244;31
2023/04/24 12:14:25;;;;;;;3.80;3.00;;;;;;;12.25;64.44;98628.78;7311111;39;20262;31
2023/04/24 12:19:58;;;;;;;4.30;3.20;;;;;;;12.36;64.20;98612.09;7275884;40;20300;31
2023/04/24 12:25:29;;;;;;;4.47;3.07;;;;;;;12.41;63.28;98601.53;7273348;40;20351;31
2023/04/24 12:31:05;;;;;;;3.80;3.03;;;;;;;12.60;62.77;98606.28;7242821;40;20245;31
2023/04/24 12:36:23;;;;;;;3.20;2.90;;;;;;;12.75;62.39;98598.09;7323757;39;20324;31
2023/04/24 12:41:55;;;;;;;7.15;2.75;;;;;;;13.08;62.31;98580.22;7343810;39;20314;31
2023/04/24 12:47:26;;;;;;;4.43;2.50;;;;;;;13.36;60.01;98585.66;7379061;39;20357;31
2023/04/24 12:52:58;;;;;;;7.05;2.90;;;;;;;13.68;60.27;98589.59;7333731;39;20275;31
2023/04/24 13:03:33;;;;;;;4.05;2.90;;;;;;;13.43;59.75;98581.09;7373834;39;20355;31
2023/04/24 13:14:09;;;;;;;5.60;2.70;;;;;;;13.62;59.64;98586.84;7418382;39;22029;31
2023/04/24 13:19:29;;;;;;;3.37;2.40;;;;;;;13.37;59.60;98592.75;7422886;39;20239;31
2023/04/24 13:25:05;;;;;;;3.30;3.00;;;;;;;13.17;60.19;98597.19;7378738;39;20238;31
2023/04/24 13:30:23;;;;;;;3.37;2.63;;;;;;;13.15;61.10;98591.16;7314701;39;20242;31
2023/04/24 13:35:56;;;;;;;2.80;2.50;;;;;;;13.22;60.84;98600.13;7355602;39;20254;31
2023/04/24 13:41:27;;;;;;;6.27;2.70;;;;;;;13.71;58.54;98588.34;7274846;40;20255;31
2023/04/24 13:46:59;;;;;;;3.63;2.70;;;;;;;13.70;58.73;98581.25;7292054;39;20260;31
2023/04/24 13:52:34;;;;;;;3.83;2.97;;;;;;;13.56;58.74;98568.69;7314045;39;20248;31
2023/04/24 13:58:08;;;;;;;3.90;2.67;;;;;;;13.51;58.58;98580.12;7354778;39;20258;31
2023/04/24 14:03:43;;;;;;;4.07;2.27;;;;;;;13.42;59.07;98571.34;7358776;39;20244;31
2023/04/24 14:09:00;;;;;;;3.90;2.20;;;;;;;13.36;59.63;98566.72;7363641;39;20378;31
2023/04/24 14:19:38;;;;;;;4.27;2.53;;;;;;;13.24;59.08;98560.19;7353602;39;21037;31
2023/04/24 14:24:55;;;;;;;2.97;2.30;;;;;;;13.13;59.38;98565.31;7345894;39;20266;31
2023/04/24 14:30:16;;;;;;;4.95;2.70;;;;;;;13.13;60.64;98574.25;7379690;39;20243;31
2023/04/24 14:35:47;;;;;;;4.75;2.55;;;;;;;13.12;62.33;98567.16;7374967;39;20244;31
2023/04/24 14:41:09;;;;;;;4.07;2.90;;;;;;;13.26;63.14;98568.94;7364389;39;20339;31
2023/04/24 14:46:43;;;;;;;3.15;2.70;;;;;;;13.32;63.06;98560.03;7380766;39;20305;31
2023/04/24 14:52:16;;;;;;;4.57;2.80;;;;;;;13.36;63.39;98563.16;7354894;39;20395;31
2023/04/24 14:57:32;;;;;;;4.05;2.70;;;;;;;13.33;63.89;98567.13;7351482;39;20358;31
2023/04/24 15:03:02;;;;;;;4.13;2.60;;;;;;;13.28;63.19;98563.34;7334707;39;20374;31
2023/04/24 15:08:35;;;;;;;3.53;2.77;;;;;;;12.89;67.24;98594.47;7320664;39;20278;31
2023/04/24 15:18:57;;;;;;;3.10;2.80;;;;;;;12.58;69.16;98591.28;7320396;39;20280;31
2023/04/24 15:29:34;;;;;;;4.45;2.90;;;;;;;13.04;68.96;98578.13;7358899;39;21140;31
2023/04/24 15:40:11;;;;;;;5.73;2.63;;;;;;;13.78;67.23;98576.47;7357256;39;21276;31
2023/04/24 15:50:47;;;;;;;2.90;2.60;;;;;;;14.09;64.30;98567.84;7370795;39;21063;31
2023/04/24 15:56:22;;;;;;;3.03;2.50;;;;;;;14.14;64.96;98564.50;7421723;39;20234;31
2023/04/24 16:01:57;;;;;;;5.30;2.70;;;;;;;13.99;64.80;98575.53;7417517;39;20309;31
2023/04/24 16:07:30;;;;;;;3.00;2.70;;;;;;;13.77;65.20;98569.41;7375657;39;20343;31
2023/04/24 16:13:03;;;;;;;3.63;2.50;;;;;;;13.63;65.50;98577.69;7357211;39;20243;31
2023/04/24 16:18:22;;;;;;;2.95;2.35;;;;;;;13.58;65.08;98588.28;7336156;39;20370;31
2023/04/24 16:23:55;;;;;;;4.13;2.60;;;;;;;13.38;65.57;98597.09;7335314;39;20259;31
2023/04/24 16:29:30;;;;;;;6.07;2.90;;;;;;;12.98;68.41;98617.66;7316020;39;20235;31
2023/04/24 16:35:02;;;;;;;3.13;2.40;;;;;;;12.44;71.13;98614.66;7293074;39;20328;31
2023/04/24 16:40:32;;;;;;;2.50;1.75;;;;;;;12.26;70.83;98599.91;7294491;39;20260;31
2023/04/24 16:45:50;;;;;;;2.57;2.10;;;;;;;12.30;70.75;98601.19;7292478;39;20237;31
2023/04/24 16:51:11;;;;;;;2.00;1.80;;;;;;;12.37;70.78;98605.66;7273245;40;20245;31
2023/04/24 16:56:42;;;;;;;2.93;2.10;;;;;;;12.36;70.69;98601.28;7263074;39;20260;31
2023/04/24 17:02:15;;;;;;;2.25;2.05;;;;;;;12.38;71.50;98603.75;7157008;39;20244;31
2023/04/24 17:07:47;;;;;;;3.00;2.17;;;;;;;12.32;71.69;98610.78;7321809;39;20376;31
2023/04/24 17:13:20;;;;;;;16.90;11.87;;;;;;;12.13;72.01;98593.34;7314954;39;20252;31
2023/04/24 17:18:52;;;;;;;10.43;7.50;;;;;;;12.11;71.57;98598.06;7356111;39;20247;31
2023/04/24 17:24:24;;;;;;;8.97;5.30;;;;;;;12.09;71.30;98585.81;7330578;39;20366;31
2023/04/24 17:29:56;;;;;;;7.35;5.50;;;;;;;12.08;70.97;98589.53;7337699;39;20230;31
2023/04/24 17:35:14;;;;;;;4.57;3.10;;;;;;;12.07;70.18;98587.84;7350000;39;20235;31
2023/04/24 17:40:32;;;;;;;4.40;2.90;;;;;;;12.07;71.07;98598.66;7400317;39;20261;31
2023/04/24 17:46:07;;;;;;;3.17;2.43;;;;;;;12.03;70.69;98600.06;7419092;39;20238;31
2023/04/24 17:51:44;;;;;;;3.43;2.50;;;;;;;11.99;71.07;98618.50;7429174;39;20251;31
2023/04/24 17:57:02;;;;;;;2.57;2.30;;;;;;;11.93;70.63;98630.09;7354891;39;20290;31
2023/04/24 18:02:39;;;;;;;2.10;1.90;;;;;;;11.74;71.36;98626.12;7334707;39;20239;31
2023/04/24 18:08:15;;;;;;;2.57;1.90;;;;;;;11.57;71.98;98637.25;7316277;39;20280;31
2023/04/24 18:13:50;;;;;;;2.00;1.70;;;;;;;11.38;73.57;98625.16;7333101;39;20262;31
2023/04/24 18:19:25;;;;;;;2.42;1.80;;;;;;;11.43;72.93;98633.53;7389308;39;20236;31
2023/04/24 18:25:00;;;;;;;2.63;2.00;;;;;;;11.44;73.31;98631.69;7376217;39;20253;31
2023/04/24 18:30:35;;;;;;;3.63;2.87;;;;;;;11.40;73.98;98642.00;7400562;39;20236;31
2023/04/24 18:36:11;;;;;;;5.05;2.20;;;;;;;11.34;73.82;98644.59;7401803;39;20337;31
2023/04/24 18:41:43;;;;;;;3.30;2.20;;;;;;;11.16;75.02;98640.41;7356076;39;21314;31
2023/04/24 18:47:01;;;;;;;2.07;1.87;;;;;;;11.19;75.26;98625.69;7379812;39;20262;31
2023/04/24 18:52:34;;;;;;;2.00;1.80;;;;;;;11.24;75.05;98625.97;7400079;39;20316;31
2023/04/24 18:57:52;;;;;;;2.85;2.55;;;;;;;11.24;74.98;98632.22;7392001;39;20270;31
2023/04/24 19:03:23;;;;;;;4.57;2.97;;;;;;;11.14;75.19;98647.84;7375857;39;20441;31
2023/04/24 19:08:56;;;;;;;4.10;3.70;;;;;;;11.00;75.48;98655.91;7379395;39;20270;31
2023/04/24 19:14:29;;;;;;;3.30;2.50;;;;;;;10.96;75.73;98658.13;7372532;39;20275;31
2023/04/24 19:20:01;;;;;;;3.10;2.57;;;;;;;10.98;75.40;98680.34;7356376;39;20310;31
2023/04/24 19:25:34;;;;;;;2.85;2.50;;;;;;;10.99;75.59;98686.59;7364654;39;20255;31
2023/04/24 19:31:09;;;;;;;5.35;3.10;;;;;;;10.96;75.40;98695.03;7377058;39;20339;31
2023/04/24 19:36:27;;;;;;;3.00;2.60;;;;;;;10.84;76.41;98697.31;7363517;39;20339;31
2023/04/24 19:42:01;;;;;;;4.07;3.67;;;;;;;10.79;77.08;98697.03;7381109;39;20277;31
2023/04/24 19:52:23;;;;;;;2.77;2.20;;;;;;;10.61;77.51;98688.41;7403949;39;21178;31
2023/04/24 19:57:57;;;;;;;3.80;2.40;;;;;;;10.60;77.69;98679.47;7439631;39;20276;31
2023/04/24 20:08:18;;;;;;;2.60;2.40;;;;;;;10.71;77.76;98662.03;7425836;39;20270;31
2023/04/24 20:18:54;;;;;;;3.60;2.50;;;;;;;10.82;77.21;98646.28;7430693;39;20353;31
2023/04/24 20:24:26;;;;;;;3.70;3.00;;;;;;;10.82;76.74;98648.97;7450130;39;21961;31
2023/04/24 20:29:43;;;;;;;3.27;2.87;;;;;;;10.82;77.10;98648.16;7376131;39;20240;31
2023/04/24 20:35:18;;;;;;;4.90;2.83;;;;;;;10.89;76.58;98650.94;7381561;39;20266;31
2023/04/24 20:40:51;;;;;;;4.10;3.00;;;;;;;10.99;75.98;98641.59;7378082;39;20235;31
2023/04/24 20:46:09;;;;;;;4.35;2.90;;;;;;;10.94;75.99;98640.44;7398098;39;20258;31
2023/04/24 20:51:42;;;;;;;3.35;3.00;;;;;;;10.96;76.40;98647.34;7404534;39;20390;31
2023/04/24 20:57:17;;;;;;;4.40;3.43;;;;;;;10.92;76.63;98642.50;7379540;39;20240;31
2023/04/24 21:02:37;;;;;;;4.87;3.40;;;;;;;10.84;76.60;98638.84;7337007;39;20278;31
2023/04/24 21:08:13;;;;;;;3.37;3.03;;;;;;;10.78;76.37;98644.97;7314913;39;20248;31
2023/04/24 21:13:45;;;;;;;3.70;3.03;;;;;;;10.85;76.51;98645.91;7319924;39;20283;31
2023/04/24 21:19:02;;;;;;;6.30;3.47;;;;;;;10.92;76.09;98648.75;7373669;39;20446;31
2023/04/24 21:24:39;;;;;;;3.87;3.37;;;;;;;10.87;77.24;98656.53;7421378;39;20258;31
2023/04/24 21:30:11;;;;;;;5.10;3.33;;;;;;;10.79;77.02;98640.44;7415988;39;20254;31
2023/04/24 21:35:40;;;;;;;4.07;3.13;;;;;;;10.75;76.99;98642.63;7380441;39;20239;31
2023/04/24 21:41:14;;;;;;;3.87;2.93;;;;;;;10.70;77.09;98622.66;7355017;39;20239;31
2023/04/24 21:46:34;;;;;;;3.60;3.30;;;;;;;10.57;76.75;98609.78;7360652;39;20251;31
2023/04/24 21:51:51;;;;;;;4.43;2.80;;;;;;;10.59;77.48;98614.97;7350868;39;20250;31
2023/04/24 21:57:39;;;;;;;3.15;2.85;;;;;;;10.45;76.51;98605.81;7319863;39;20262;31
2023/04/24 22:08:15;;;;;;;3.90;3.23;;;;;;;10.55;76.13;98597.50;7395895;39;21380;31
2023/04/24 22:18:55;;;;;;;3.30;3.00;;;;;;;10.50;75.94;98592.66;7400660;39;20442;31
2023/04/24 22:24:28;;;;;;;4.40;3.12;;;;;;;10.39;75.92;98579.62;7421503;39;20252;31
2023/04/24 22:29:45;;;;;;;3.67;2.93;;;;;;;10.38;75.97;98581.47;7374491;39;20320;31
2023/04/24 22:40:24;;;;;;;4.28;3.22;;;;;;;10.37;75.62;98584.34;7354383;39;21214;31
2023/04/24 22:50:48;;;;;;;3.60;3.10;;;;;;;10.41;75.08;98582.94;7442358;39;20289;31
2023/04/24 22:56:24;;;;;;;3.80;3.20;;;;;;;10.42;75.25;98573.88;7420641;39;20251;31
2023/04/24 23:02:00;;;;;;;3.93;2.90;;;;;;;10.28;74.66;98567.41;7405635;39;21270;31
2023/04/24 23:07:34;;;;;;;4.90;3.50;;;;;;;10.27;74.77;98576.50;7446192;39;21138;31
2023/04/24 23:13:10;;;;;;;4.10;3.10;;;;;;;10.34;74.54;98582.84;7423122;39;20381;31
2023/04/24 23:18:45;;;;;;;4.43;3.33;;;;;;;10.33;74.24;98583.03;7406879;39;21196;31
2023/04/24 23:24:17;;;;;;;4.95;3.25;;;;;;;10.30;74.58;98570.75;7423275;39;20364;31
2023/04/24 23:29:50;;;;;;;4.80;3.27;;;;;;;10.37;74.46;98571.72;7379471;39;20376;31
2023/04/24 23:35:25;;;;;;;3.30;3.00;;;;;;;10.39;73.98;98574.22;7171682;39;20244;31
2023/04/24 23:40:57;;;;;;;5.70;3.67;;;;;;;10.25;74.80;98562.38;7377290;39;20241;31
2023/04/24 23:46:30;;;;;;;4.27;3.87;;;;;;;10.19;74.20;98563.09;7356748;39;20262;31
2023/04/24 23:52:02;;;;;;;4.53;3.90;;;;;;;10.16;75.05;98576.94;7339147;39;20272;31
